sensor_id;sensor_type;location;lat;lon;timestamp;P1;durP1;ratioP1;P2;durP2;ratioP2
29774;SDS011;16676;51.202;6.774;2023-03-01T00:00:36;10.73;;;4.47;;
29774;SDS011;16676;51.202;6.774;2023-03-01T00:04:38;9.82;;;4.57;;
29774;SDS011;16676;51.202;6.774;2023-03-01T00:08:41;13.40;;;4.57;;
29774;SDS011;16676;51.202;6.774;2023-03-01T00:12:43;10.57;;;4.43;;
29774;SDS011;16676;51.202;6.774;2023-03-01T00:16:45;12.05;;;4.50;;
29774;SDS011;16676;51.202;6.774;2023-03-01T00:20:49;10.25;;;4.10;;
29774;SDS011;16676;51.202;6.774;2023-03-01T00:24:53;9.90;;;4.32;;
29774;SDS011;16676;51.202;6.774;2023-03-01T00:28:56;9.50;;;4.07;;
29774;SDS011;16676;51.202;6.774;2023-03-01T00:32:59;12.10;;;4.60;;
29774;SDS011;16676;51.202;6.774;2023-03-01T00:37:01;10.27;;;4.28;;
29774;SDS011;16676;51.202;6.774;2023-03-01T00:41:07;10.52;;;4.38;;
29774;SDS011;16676;51.202;6.774;2023-03-01T00:45:10;10.80;;;4.32;;
29774;SDS011;16676;51.202;6.774;2023-03-01T00:49:13;9.43;;;3.58;;
29774;SDS011;16676;51.202;6.774;2023-03-01T00:53:15;12.50;;;4.80;;
29774;SDS011;16676;51.202;6.774;2023-03-01T00:57:18;9.35;;;3.67;;
29774;SDS011;16676;51.202;6.774;2023-03-01T01:01:21;8.10;;;4.20;;
29774;SDS011;16676;51.202;6.774;2023-03-01T01:05:24;9.82;;;3.60;;
29774;SDS011;16676;51.202;6.774;2023-03-01T01:09:26;11.35;;;4.30;;
29774;SDS011;16676;51.202;6.774;2023-03-01T01:13:29;11.57;;;4.00;;
29774;SDS011;16676;51.202;6.774;2023-03-01T01:17:31;6.30;;;3.20;;
29774;SDS011;16676;51.202;6.774;2023-03-01T01:21:33;9.73;;;3.70;;
29774;SDS011;16676;51.202;6.774;2023-03-01T01:25:36;9.27;;;3.50;;
29774;SDS011;16676;51.202;6.774;2023-03-01T01:29:39;7.65;;;3.33;;
29774;SDS011;16676;51.202;6.774;2023-03-01T01:33:42;8.50;;;3.72;;
29774;SDS011;16676;51.202;6.774;2023-03-01T01:37:44;8.50;;;3.53;;
29774;SDS011;16676;51.202;6.774;2023-03-01T01:41:46;9.23;;;3.83;;
29774;SDS011;16676;51.202;6.774;2023-03-01T01:45:49;8.45;;;3.53;;
29774;SDS011;16676;51.202;6.774;2023-03-01T01:49:54;6.55;;;3.05;;
29774;SDS011;16676;51.202;6.774;2023-03-01T01:53:58;7.93;;;3.35;;
29774;SDS011;16676;51.202;6.774;2023-03-01T01:58:02;9.65;;;3.63;;
29774;SDS011;16676;51.202;6.774;2023-03-01T02:02:09;7.78;;;3.53;;
29774;SDS011;16676;51.202;6.774;2023-03-01T02:06:15;6.78;;;3.53;;
29774;SDS011;16676;51.202;6.774;2023-03-01T02:10:22;6.07;;;3.08;;
29774;SDS011;16676;51.202;6.774;2023-03-01T02:14:25;7.75;;;3.15;;
29774;SDS011;16676;51.202;6.774;2023-03-01T02:18:29;8.88;;;3.38;;
29774;SDS011;16676;51.202;6.774;2023-03-01T02:22:31;6.60;;;3.22;;
29774;SDS011;16676;51.202;6.774;2023-03-01T02:26:35;7.43;;;3.40;;
29774;SDS011;16676;51.202;6.774;2023-03-01T02:30:45;8.13;;;3.70;;
29774;SDS011;16676;51.202;6.774;2023-03-01T02:35:03;6.82;;;3.03;;
29774;SDS011;16676;51.202;6.774;2023-03-01T02:44:18;8.45;;;3.20;;
29774;SDS011;16676;51.202;6.774;2023-03-01T02:48:22;5.88;;;2.80;;
29774;SDS011;16676;51.202;6.774;2023-03-01T02:52:30;6.43;;;2.88;;
29774;SDS011;16676;51.202;6.774;2023-03-01T02:56:42;6.57;;;3.30;;
29774;SDS011;16676;51.202;6.774;2023-03-01T03:00:48;7.07;;;3.05;;
29774;SDS011;16676;51.202;6.774;2023-03-01T03:04:51;6.35;;;2.75;;
29774;SDS011;16676;51.202;6.774;2023-03-01T03:08:53;6.18;;;2.92;;
29774;SDS011;16676;51.202;6.774;2023-03-01T03:12:56;5.35;;;2.63;;
29774;SDS011;16676;51.202;6.774;2023-03-01T03:16:59;7.53;;;3.15;;
29774;SDS011;16676;51.202;6.774;2023-03-01T03:21:02;5.75;;;3.00;;
29774;SDS011;16676;51.202;6.774;2023-03-01T03:25:10;6.00;;;2.70;;
29774;SDS011;16676;51.202;6.774;2023-03-01T03:29:12;6.57;;;2.90;;
29774;SDS011;16676;51.202;6.774;2023-03-01T03:33:14;5.28;;;2.67;;
29774;SDS011;16676;51.202;6.774;2023-03-01T03:37:17;6.30;;;2.90;;
29774;SDS011;16676;51.202;6.774;2023-03-01T03:41:34;4.93;;;2.55;;
29774;SDS011;16676;51.202;6.774;2023-03-01T03:45:36;5.80;;;2.70;;
29774;SDS011;16676;51.202;6.774;2023-03-01T03:49:38;6.07;;;2.60;;
29774;SDS011;16676;51.202;6.774;2023-03-01T03:53:42;7.00;;;2.88;;
29774;SDS011;16676;51.202;6.774;2023-03-01T03:57:45;5.25;;;2.60;;
29774;SDS011;16676;51.202;6.774;2023-03-01T04:01:51;4.93;;;2.67;;
29774;SDS011;16676;51.202;6.774;2023-03-01T04:05:53;5.10;;;2.50;;
29774;SDS011;16676;51.202;6.774;2023-03-01T04:09:56;5.90;;;2.25;;
29774;SDS011;16676;51.202;6.774;2023-03-01T04:13:58;6.30;;;2.47;;
29774;SDS011;16676;51.202;6.774;2023-03-01T04:18:00;5.05;;;2.40;;
29774;SDS011;16676;51.202;6.774;2023-03-01T04:22:03;6.22;;;2.60;;
29774;SDS011;16676;51.202;6.774;2023-03-01T04:26:10;5.65;;;2.65;;
29774;SDS011;16676;51.202;6.774;2023-03-01T04:30:13;4.07;;;2.40;;
29774;SDS011;16676;51.202;6.774;2023-03-01T04:34:15;4.93;;;2.40;;
29774;SDS011;16676;51.202;6.774;2023-03-01T04:38:18;5.25;;;2.53;;
29774;SDS011;16676;51.202;6.774;2023-03-01T04:42:22;5.13;;;2.63;;
29774;SDS011;16676;51.202;6.774;2023-03-01T04:46:24;4.40;;;2.33;;
29774;SDS011;16676;51.202;6.774;2023-03-01T04:50:26;5.00;;;2.50;;
29774;SDS011;16676;51.202;6.774;2023-03-01T04:54:29;5.22;;;2.55;;
29774;SDS011;16676;51.202;6.774;2023-03-01T04:58:32;4.85;;;2.42;;
29774;SDS011;16676;51.202;6.774;2023-03-01T05:02:34;4.10;;;2.25;;
29774;SDS011;16676;51.202;6.774;2023-03-01T05:06:36;4.80;;;2.42;;
29774;SDS011;16676;51.202;6.774;2023-03-01T05:10:38;4.60;;;2.45;;
29774;SDS011;16676;51.202;6.774;2023-03-01T05:14:42;4.97;;;2.20;;
29774;SDS011;16676;51.202;6.774;2023-03-01T05:18:44;5.45;;;2.60;;
29774;SDS011;16676;51.202;6.774;2023-03-01T05:22:46;4.47;;;2.35;;
29774;SDS011;16676;51.202;6.774;2023-03-01T05:26:48;4.38;;;2.28;;
29774;SDS011;16676;51.202;6.774;2023-03-01T05:30:53;5.20;;;2.60;;
29774;SDS011;16676;51.202;6.774;2023-03-01T05:34:55;4.10;;;2.10;;
29774;SDS011;16676;51.202;6.774;2023-03-01T05:38:57;5.07;;;2.40;;
29774;SDS011;16676;51.202;6.774;2023-03-01T05:42:59;4.93;;;2.22;;
29774;SDS011;16676;51.202;6.774;2023-03-01T05:47:03;4.72;;;2.38;;
29774;SDS011;16676;51.202;6.774;2023-03-01T05:51:05;4.20;;;2.65;;
29774;SDS011;16676;51.202;6.774;2023-03-01T05:55:07;6.53;;;2.50;;
29774;SDS011;16676;51.202;6.774;2023-03-01T05:59:10;4.93;;;2.20;;
29774;SDS011;16676;51.202;6.774;2023-03-01T06:03:15;4.50;;;2.40;;
29774;SDS011;16676;51.202;6.774;2023-03-01T06:07:18;7.82;;;2.33;;
29774;SDS011;16676;51.202;6.774;2023-03-01T06:11:20;5.28;;;2.30;;
29774;SDS011;16676;51.202;6.774;2023-03-01T06:15:23;6.50;;;2.55;;
29774;SDS011;16676;51.202;6.774;2023-03-01T06:19:27;6.18;;;2.40;;
29774;SDS011;16676;51.202;6.774;2023-03-01T06:23:29;8.55;;;3.15;;
29774;SDS011;16676;51.202;6.774;2023-03-01T06:27:31;8.18;;;3.15;;
29774;SDS011;16676;51.202;6.774;2023-03-01T06:31:33;8.75;;;3.15;;
29774;SDS011;16676;51.202;6.774;2023-03-01T06:35:36;10.20;;;2.65;;
29774;SDS011;16676;51.202;6.774;2023-03-01T06:39:39;8.48;;;3.13;;
29774;SDS011;16676;51.202;6.774;2023-03-01T06:43:40;9.98;;;3.03;;
29774;SDS011;16676;51.202;6.774;2023-03-01T06:47:42;9.02;;;2.72;;
29774;SDS011;16676;51.202;6.774;2023-03-01T06:51:46;9.93;;;2.63;;
29774;SDS011;16676;51.202;6.774;2023-03-01T06:55:53;14.23;;;2.80;;
29774;SDS011;16676;51.202;6.774;2023-03-01T06:59:55;7.70;;;2.45;;
29774;SDS011;16676;51.202;6.774;2023-03-01T07:03:57;6.25;;;2.67;;
29774;SDS011;16676;51.202;6.774;2023-03-01T07:08:01;6.78;;;2.95;;
29774;SDS011;16676;51.202;6.774;2023-03-01T07:12:03;8.55;;;2.70;;
29774;SDS011;16676;51.202;6.774;2023-03-01T07:16:05;6.82;;;2.35;;
29774;SDS011;16676;51.202;6.774;2023-03-01T07:20:08;6.55;;;2.50;;
29774;SDS011;16676;51.202;6.774;2023-03-01T07:24:12;5.45;;;2.33;;
29774;SDS011;16676;51.202;6.774;2023-03-01T07:28:14;11.07;;;2.97;;
29774;SDS011;16676;51.202;6.774;2023-03-01T07:32:16;8.10;;;2.42;;
29774;SDS011;16676;51.202;6.774;2023-03-01T07:36:18;5.82;;;2.50;;
29774;SDS011;16676;51.202;6.774;2023-03-01T07:40:21;8.50;;;2.47;;
29774;SDS011;16676;51.202;6.774;2023-03-01T07:44:23;6.25;;;2.67;;
29774;SDS011;16676;51.202;6.774;2023-03-01T07:48:25;5.65;;;2.50;;
29774;SDS011;16676;51.202;6.774;2023-03-01T07:52:27;7.00;;;2.78;;
29774;SDS011;16676;51.202;6.774;2023-03-01T07:56:31;7.95;;;2.47;;
29774;SDS011;16676;51.202;6.774;2023-03-01T08:00:32;5.97;;;2.60;;
29774;SDS011;16676;51.202;6.774;2023-03-01T08:04:34;5.68;;;2.53;;
29774;SDS011;16676;51.202;6.774;2023-03-01T08:08:36;8.23;;;2.40;;
29774;SDS011;16676;51.202;6.774;2023-03-01T08:12:40;6.53;;;2.60;;
29774;SDS011;16676;51.202;6.774;2023-03-01T08:16:41;4.40;;;2.20;;
29774;SDS011;16676;51.202;6.774;2023-03-01T08:20:43;6.07;;;2.22;;
29774;SDS011;16676;51.202;6.774;2023-03-01T08:24:46;6.10;;;2.22;;
29774;SDS011;16676;51.202;6.774;2023-03-01T08:28:49;4.78;;;2.28;;
29774;SDS011;16676;51.202;6.774;2023-03-01T08:32:51;3.75;;;2.00;;
29774;SDS011;16676;51.202;6.774;2023-03-01T08:36:54;4.57;;;2.20;;
29774;SDS011;16676;51.202;6.774;2023-03-01T08:40:58;4.97;;;2.10;;
29774;SDS011;16676;51.202;6.774;2023-03-01T08:45:02;4.65;;;2.08;;
29774;SDS011;16676;51.202;6.774;2023-03-01T08:49:04;4.07;;;2.13;;
29774;SDS011;16676;51.202;6.774;2023-03-01T08:53:07;5.03;;;2.40;;
29774;SDS011;16676;51.202;6.774;2023-03-01T08:57:09;4.60;;;2.13;;
29774;SDS011;16676;51.202;6.774;2023-03-01T09:01:13;4.93;;;2.03;;
29774;SDS011;16676;51.202;6.774;2023-03-01T09:05:16;5.05;;;2.10;;
29774;SDS011;16676;51.202;6.774;2023-03-01T09:09:18;3.25;;;2.03;;
29774;SDS011;16676;51.202;6.774;2023-03-01T09:13:20;6.22;;;2.53;;
29774;SDS011;16676;51.202;6.774;2023-03-01T09:17:25;3.90;;;1.95;;
29774;SDS011;16676;51.202;6.774;2023-03-01T09:21:27;8.45;;;2.20;;
29774;SDS011;16676;51.202;6.774;2023-03-01T09:25:29;6.70;;;2.28;;
29774;SDS011;16676;51.202;6.774;2023-03-01T09:29:31;3.70;;;1.90;;
29774;SDS011;16676;51.202;6.774;2023-03-01T09:33:34;5.18;;;2.35;;
29774;SDS011;16676;51.202;6.774;2023-03-01T09:37:36;5.25;;;2.00;;
29774;SDS011;16676;51.202;6.774;2023-03-01T09:41:44;4.55;;;1.75;;
29774;SDS011;16676;51.202;6.774;2023-03-01T09:45:48;3.33;;;2.13;;
29774;SDS011;16676;51.202;6.774;2023-03-01T09:49:56;3.17;;;1.98;;
29774;SDS011;16676;51.202;6.774;2023-03-01T09:54:01;4.18;;;2.30;;
29774;SDS011;16676;51.202;6.774;2023-03-01T09:58:25;3.42;;;2.08;;
29774;SDS011;16676;51.202;6.774;2023-03-01T10:02:38;6.78;;;2.30;;
29774;SDS011;16676;51.202;6.774;2023-03-01T10:06:45;3.78;;;1.88;;
29774;SDS011;16676;51.202;6.774;2023-03-01T10:10:52;3.22;;;1.80;;
29774;SDS011;16676;51.202;6.774;2023-03-01T10:14:56;2.78;;;1.80;;
29774;SDS011;16676;51.202;6.774;2023-03-01T10:19:03;4.18;;;2.10;;
29774;SDS011;16676;51.202;6.774;2023-03-01T10:23:08;3.17;;;2.13;;
29774;SDS011;16676;51.202;6.774;2023-03-01T10:27:12;3.80;;;2.03;;
29774;SDS011;16676;51.202;6.774;2023-03-01T10:31:18;3.80;;;1.90;;
29774;SDS011;16676;51.202;6.774;2023-03-01T10:35:28;4.32;;;1.85;;
29774;SDS011;16676;51.202;6.774;2023-03-01T10:39:37;6.10;;;2.50;;
29774;SDS011;16676;51.202;6.774;2023-03-01T10:43:57;3.95;;;2.15;;
29774;SDS011;16676;51.202;6.774;2023-03-01T10:48:04;3.75;;;1.77;;
29774;SDS011;16676;51.202;6.774;2023-03-01T10:52:11;3.43;;;2.13;;
29774;SDS011;16676;51.202;6.774;2023-03-01T10:56:21;3.35;;;2.13;;
29774;SDS011;16676;51.202;6.774;2023-03-01T11:00:24;6.68;;;2.20;;
29774;SDS011;16676;51.202;6.774;2023-03-01T11:04:27;4.20;;;2.08;;
29774;SDS011;16676;51.202;6.774;2023-03-01T11:08:30;5.53;;;2.35;;
29774;SDS011;16676;51.202;6.774;2023-03-01T11:12:44;2.95;;;2.00;;
29774;SDS011;16676;51.202;6.774;2023-03-01T11:16:47;4.75;;;2.20;;
29774;SDS011;16676;51.202;6.774;2023-03-01T11:20:51;4.30;;;2.20;;
29774;SDS011;16676;51.202;6.774;2023-03-01T11:24:56;4.65;;;2.17;;
29774;SDS011;16676;51.202;6.774;2023-03-01T11:29:00;3.40;;;2.28;;
29774;SDS011;16676;51.202;6.774;2023-03-01T11:33:11;4.15;;;2.28;;
29774;SDS011;16676;51.202;6.774;2023-03-01T11:37:23;4.03;;;2.20;;
29774;SDS011;16676;51.202;6.774;2023-03-01T11:41:34;3.67;;;1.95;;
29774;SDS011;16676;51.202;6.774;2023-03-01T11:45:46;5.67;;;2.40;;
29774;SDS011;16676;51.202;6.774;2023-03-01T11:50:06;4.25;;;2.05;;
29774;SDS011;16676;51.202;6.774;2023-03-01T11:54:22;4.40;;;2.20;;
29774;SDS011;16676;51.202;6.774;2023-03-01T11:58:40;3.38;;;2.25;;
29774;SDS011;16676;51.202;6.774;2023-03-01T12:03:15;3.17;;;2.00;;
29774;SDS011;16676;51.202;6.774;2023-03-01T12:07:31;4.75;;;2.00;;
29774;SDS011;16676;51.202;6.774;2023-03-01T12:11:43;3.58;;;2.22;;
29774;SDS011;16676;51.202;6.774;2023-03-01T12:16:07;3.10;;;2.10;;
29774;SDS011;16676;51.202;6.774;2023-03-01T12:20:21;4.30;;;2.25;;
29774;SDS011;16676;51.202;6.774;2023-03-01T12:24:38;2.50;;;2.00;;
29774;SDS011;16676;51.202;6.774;2023-03-01T12:28:56;3.45;;;2.28;;
29774;SDS011;16676;51.202;6.774;2023-03-01T12:33:17;2.95;;;1.98;;
29774;SDS011;16676;51.202;6.774;2023-03-01T12:37:31;3.58;;;2.38;;
29774;SDS011;16676;51.202;6.774;2023-03-01T12:41:46;2.97;;;2.03;;
29774;SDS011;16676;51.202;6.774;2023-03-01T12:45:57;4.95;;;2.33;;
29774;SDS011;16676;51.202;6.774;2023-03-01T12:50:37;6.60;;;2.53;;
29774;SDS011;16676;51.202;6.774;2023-03-01T12:54:43;3.92;;;2.40;;
29774;SDS011;16676;51.202;6.774;2023-03-01T12:58:50;4.68;;;2.45;;
29774;SDS011;16676;51.202;6.774;2023-03-01T13:03:00;3.92;;;2.13;;
29774;SDS011;16676;51.202;6.774;2023-03-01T13:07:16;2.88;;;2.00;;
29774;SDS011;16676;51.202;6.774;2023-03-01T13:11:27;3.55;;;2.05;;
29774;SDS011;16676;51.202;6.774;2023-03-01T13:15:33;3.22;;;2.00;;
29774;SDS011;16676;51.202;6.774;2023-03-01T13:19:36;3.92;;;2.10;;
29774;SDS011;16676;51.202;6.774;2023-03-01T13:23:40;3.22;;;2.40;;
29774;SDS011;16676;51.202;6.774;2023-03-01T13:27:49;4.88;;;1.88;;
29774;SDS011;16676;51.202;6.774;2023-03-01T13:31:56;3.45;;;2.10;;
29774;SDS011;16676;51.202;6.774;2023-03-01T13:40:04;3.85;;;1.83;;
29774;SDS011;16676;51.202;6.774;2023-03-01T13:44:33;3.55;;;2.08;;
29774;SDS011;16676;51.202;6.774;2023-03-01T13:48:38;3.03;;;2.20;;
29774;SDS011;16676;51.202;6.774;2023-03-01T13:52:42;2.92;;;2.10;;
29774;SDS011;16676;51.202;6.774;2023-03-01T13:56:46;3.40;;;2.05;;
29774;SDS011;16676;51.202;6.774;2023-03-01T14:00:54;2.88;;;2.10;;
29774;SDS011;16676;51.202;6.774;2023-03-01T14:04:58;3.35;;;1.90;;
29774;SDS011;16676;51.202;6.774;2023-03-01T14:09:02;3.42;;;2.20;;
29774;SDS011;16676;51.202;6.774;2023-03-01T14:13:17;3.90;;;2.25;;
29774;SDS011;16676;51.202;6.774;2023-03-01T14:17:42;3.30;;;2.38;;
29774;SDS011;16676;51.202;6.774;2023-03-01T14:21:57;3.33;;;2.10;;
29774;SDS011;16676;51.202;6.774;2023-03-01T14:26:02;3.60;;;1.83;;
29774;SDS011;16676;51.202;6.774;2023-03-01T14:30:10;2.90;;;1.73;;
29774;SDS011;16676;51.202;6.774;2023-03-01T14:34:19;2.50;;;1.90;;
29774;SDS011;16676;51.202;6.774;2023-03-01T14:38:22;2.38;;;1.83;;
29774;SDS011;16676;51.202;6.774;2023-03-01T14:42:31;4.23;;;2.23;;
29774;SDS011;16676;51.202;6.774;2023-03-01T14:46:37;3.45;;;1.98;;
29774;SDS011;16676;51.202;6.774;2023-03-01T14:50:42;3.13;;;2.17;;
29774;SDS011;16676;51.202;6.774;2023-03-01T14:54:46;3.50;;;2.10;;
29774;SDS011;16676;51.202;6.774;2023-03-01T14:58:51;3.85;;;2.17;;
29774;SDS011;16676;51.202;6.774;2023-03-01T15:02:54;3.50;;;2.05;;
29774;SDS011;16676;51.202;6.774;2023-03-01T15:06:59;4.35;;;2.17;;
29774;SDS011;16676;51.202;6.774;2023-03-01T15:11:05;2.60;;;2.03;;
29774;SDS011;16676;51.202;6.774;2023-03-01T15:15:32;2.65;;;1.85;;
29774;SDS011;16676;51.202;6.774;2023-03-01T15:19:37;3.20;;;2.03;;
29774;SDS011;16676;51.202;6.774;2023-03-01T15:23:40;3.17;;;2.05;;
29774;SDS011;16676;51.202;6.774;2023-03-01T15:27:44;3.22;;;2.00;;
29774;SDS011;16676;51.202;6.774;2023-03-01T15:31:53;3.40;;;1.88;;
29774;SDS011;16676;51.202;6.774;2023-03-01T15:35:56;3.13;;;2.00;;
29774;SDS011;16676;51.202;6.774;2023-03-01T15:40:00;3.72;;;1.98;;
29774;SDS011;16676;51.202;6.774;2023-03-01T15:44:14;2.90;;;1.98;;
29774;SDS011;16676;51.202;6.774;2023-03-01T15:48:17;2.75;;;1.85;;
29774;SDS011;16676;51.202;6.774;2023-03-01T15:52:22;4.90;;;2.00;;
29774;SDS011;16676;51.202;6.774;2023-03-01T15:56:30;4.18;;;2.25;;
29774;SDS011;16676;51.202;6.774;2023-03-01T16:00:32;2.90;;;2.10;;
29774;SDS011;16676;51.202;6.774;2023-03-01T16:04:34;3.80;;;1.92;;
29774;SDS011;16676;51.202;6.774;2023-03-01T16:08:36;3.00;;;1.90;;
29774;SDS011;16676;51.202;6.774;2023-03-01T16:12:40;2.88;;;1.85;;
29774;SDS011;16676;51.202;6.774;2023-03-01T16:16:42;2.40;;;1.90;;
29774;SDS011;16676;51.202;6.774;2023-03-01T16:20:44;2.78;;;1.92;;
29774;SDS011;16676;51.202;6.774;2023-03-01T16:24:46;3.13;;;2.05;;
29774;SDS011;16676;51.202;6.774;2023-03-01T16:28:50;3.40;;;2.05;;
29774;SDS011;16676;51.202;6.774;2023-03-01T16:32:56;4.05;;;2.10;;
29774;SDS011;16676;51.202;6.774;2023-03-01T16:36:59;3.72;;;2.38;;
29774;SDS011;16676;51.202;6.774;2023-03-01T16:41:01;3.83;;;2.50;;
29774;SDS011;16676;51.202;6.774;2023-03-01T16:45:05;4.60;;;2.33;;
29774;SDS011;16676;51.202;6.774;2023-03-01T16:49:08;3.80;;;2.03;;
29774;SDS011;16676;51.202;6.774;2023-03-01T16:53:10;4.43;;;2.00;;
29774;SDS011;16676;51.202;6.774;2023-03-01T16:57:12;3.85;;;2.33;;
29774;SDS011;16676;51.202;6.774;2023-03-01T17:01:16;3.63;;;2.13;;
29774;SDS011;16676;51.202;6.774;2023-03-01T17:05:19;5.03;;;2.42;;
29774;SDS011;16676;51.202;6.774;2023-03-01T17:09:23;3.30;;;2.33;;
29774;SDS011;16676;51.202;6.774;2023-03-01T17:13:25;4.72;;;2.33;;
29774;SDS011;16676;51.202;6.774;2023-03-01T17:17:29;4.45;;;2.70;;
29774;SDS011;16676;51.202;6.774;2023-03-01T17:21:31;4.78;;;2.58;;
29774;SDS011;16676;51.202;6.774;2023-03-01T17:25:33;4.57;;;2.70;;
29774;SDS011;16676;51.202;6.774;2023-03-01T17:29:35;3.58;;;2.30;;
29774;SDS011;16676;51.202;6.774;2023-03-01T17:33:38;5.93;;;2.47;;
29774;SDS011;16676;51.202;6.774;2023-03-01T17:37:40;6.45;;;3.03;;
29774;SDS011;16676;51.202;6.774;2023-03-01T17:41:45;5.28;;;3.08;;
29774;SDS011;16676;51.202;6.774;2023-03-01T17:45:47;3.90;;;2.75;;
29774;SDS011;16676;51.202;6.774;2023-03-01T17:49:52;12.15;;;3.55;;
29774;SDS011;16676;51.202;6.774;2023-03-01T17:53:54;12.25;;;3.58;;
29774;SDS011;16676;51.202;6.774;2023-03-01T17:57:56;11.15;;;3.50;;
29774;SDS011;16676;51.202;6.774;2023-03-01T18:01:58;9.00;;;3.90;;
29774;SDS011;16676;51.202;6.774;2023-03-01T18:06:02;10.90;;;4.30;;
29774;SDS011;16676;51.202;6.774;2023-03-01T18:10:10;9.18;;;4.07;;
29774;SDS011;16676;51.202;6.774;2023-03-01T18:14:12;16.23;;;4.80;;
29774;SDS011;16676;51.202;6.774;2023-03-01T18:18:14;9.32;;;4.28;;
29774;SDS011;16676;51.202;6.774;2023-03-01T18:22:18;10.52;;;4.25;;
29774;SDS011;16676;51.202;6.774;2023-03-01T18:26:20;10.05;;;4.30;;
29774;SDS011;16676;51.202;6.774;2023-03-01T18:30:24;10.30;;;4.85;;
29774;SDS011;16676;51.202;6.774;2023-03-01T18:34:26;8.65;;;4.70;;
29774;SDS011;16676;51.202;6.774;2023-03-01T18:38:29;14.77;;;4.78;;
29774;SDS011;16676;51.202;6.774;2023-03-01T18:42:31;10.80;;;4.60;;
29774;SDS011;16676;51.202;6.774;2023-03-01T18:46:33;17.63;;;6.55;;
29774;SDS011;16676;51.202;6.774;2023-03-01T18:50:36;17.42;;;6.85;;
29774;SDS011;16676;51.202;6.774;2023-03-01T18:54:39;19.42;;;6.13;;
29774;SDS011;16676;51.202;6.774;2023-03-01T18:58:41;16.02;;;6.30;;
29774;SDS011;16676;51.202;6.774;2023-03-01T19:02:43;18.33;;;6.40;;
29774;SDS011;16676;51.202;6.774;2023-03-01T19:06:46;16.73;;;6.20;;
29774;SDS011;16676;51.202;6.774;2023-03-01T19:10:54;14.15;;;5.95;;
29774;SDS011;16676;51.202;6.774;2023-03-01T19:14:57;17.35;;;5.78;;
29774;SDS011;16676;51.202;6.774;2023-03-01T19:19:00;13.70;;;5.72;;
29774;SDS011;16676;51.202;6.774;2023-03-01T19:23:03;14.10;;;5.75;;
29774;SDS011;16676;51.202;6.774;2023-03-01T19:27:07;18.92;;;5.60;;
29774;SDS011;16676;51.202;6.774;2023-03-01T19:31:09;15.18;;;5.72;;
29774;SDS011;16676;51.202;6.774;2023-03-01T19:35:14;16.45;;;5.28;;
29774;SDS011;16676;51.202;6.774;2023-03-01T19:39:16;12.10;;;5.55;;
29774;SDS011;16676;51.202;6.774;2023-03-01T19:43:19;12.38;;;5.25;;
29774;SDS011;16676;51.202;6.774;2023-03-01T19:47:21;10.18;;;4.93;;
29774;SDS011;16676;51.202;6.774;2023-03-01T19:51:23;13.52;;;5.35;;
29774;SDS011;16676;51.202;6.774;2023-03-01T19:55:25;17.00;;;5.38;;
29774;SDS011;16676;51.202;6.774;2023-03-01T19:59:29;11.27;;;5.43;;
29774;SDS011;16676;51.202;6.774;2023-03-01T20:03:31;10.52;;;4.70;;
29774;SDS011;16676;51.202;6.774;2023-03-01T20:07:34;13.23;;;4.72;;
29774;SDS011;16676;51.202;6.774;2023-03-01T20:11:36;10.80;;;4.82;;
29774;SDS011;16676;51.202;6.774;2023-03-01T20:15:41;10.68;;;4.53;;
29774;SDS011;16676;51.202;6.774;2023-03-01T20:19:43;9.77;;;4.45;;
29774;SDS011;16676;51.202;6.774;2023-03-01T20:23:45;10.20;;;4.20;;
29774;SDS011;16676;51.202;6.774;2023-03-01T20:27:48;12.43;;;4.50;;
29774;SDS011;16676;51.202;6.774;2023-03-01T20:31:52;7.50;;;4.20;;
29774;SDS011;16676;51.202;6.774;2023-03-01T20:35:54;9.98;;;4.45;;
29774;SDS011;16676;51.202;6.774;2023-03-01T20:39:56;12.00;;;4.30;;
29774;SDS011;16676;51.202;6.774;2023-03-01T20:43:58;11.35;;;4.13;;
29774;SDS011;16676;51.202;6.774;2023-03-01T20:48:01;11.88;;;4.53;;
29774;SDS011;16676;51.202;6.774;2023-03-01T20:52:03;16.73;;;4.68;;
29774;SDS011;16676;51.202;6.774;2023-03-01T20:56:06;10.55;;;4.30;;
29774;SDS011;16676;51.202;6.774;2023-03-01T21:00:10;12.35;;;4.53;;
29774;SDS011;16676;51.202;6.774;2023-03-01T21:04:14;9.10;;;4.05;;
29774;SDS011;16676;51.202;6.774;2023-03-01T21:08:16;9.85;;;4.22;;
29774;SDS011;16676;51.202;6.774;2023-03-01T21:12:18;9.25;;;4.10;;
29774;SDS011;16676;51.202;6.774;2023-03-01T21:16:20;10.48;;;3.88;;
29774;SDS011;16676;51.202;6.774;2023-03-01T21:20:24;10.68;;;3.95;;
29774;SDS011;16676;51.202;6.774;2023-03-01T21:24:26;8.50;;;3.90;;
29774;SDS011;16676;51.202;6.774;2023-03-01T21:28:28;8.48;;;3.92;;
29774;SDS011;16676;51.202;6.774;2023-03-01T21:32:32;9.00;;;3.83;;
29774;SDS011;16676;51.202;6.774;2023-03-01T21:36:35;8.98;;;4.07;;
29774;SDS011;16676;51.202;6.774;2023-03-01T21:40:37;8.27;;;3.78;;
29774;SDS011;16676;51.202;6.774;2023-03-01T21:44:39;7.57;;;3.53;;
29774;SDS011;16676;51.202;6.774;2023-03-01T21:48:41;7.57;;;3.42;;
29774;SDS011;16676;51.202;6.774;2023-03-01T21:52:45;6.43;;;3.50;;
29774;SDS011;16676;51.202;6.774;2023-03-01T21:56:47;6.50;;;3.50;;
29774;SDS011;16676;51.202;6.774;2023-03-01T22:00:50;7.15;;;3.20;;
29774;SDS011;16676;51.202;6.774;2023-03-01T22:04:52;9.25;;;3.75;;
29774;SDS011;16676;51.202;6.774;2023-03-01T22:08:58;9.27;;;3.90;;
29774;SDS011;16676;51.202;6.774;2023-03-01T22:13:03;6.22;;;3.20;;
29774;SDS011;16676;51.202;6.774;2023-03-01T22:17:05;6.95;;;3.40;;
29774;SDS011;16676;51.202;6.774;2023-03-01T22:21:07;6.93;;;3.22;;
29774;SDS011;16676;51.202;6.774;2023-03-01T22:25:11;7.55;;;3.38;;
29774;SDS011;16676;51.202;6.774;2023-03-01T22:29:14;8.45;;;3.88;;
29774;SDS011;16676;51.202;6.774;2023-03-01T22:33:17;6.60;;;3.38;;
29774;SDS011;16676;51.202;6.774;2023-03-01T22:37:19;7.90;;;3.80;;
29774;SDS011;16676;51.202;6.774;2023-03-01T22:41:22;7.70;;;3.42;;
29774;SDS011;16676;51.202;6.774;2023-03-01T22:45:26;7.45;;;3.50;;
29774;SDS011;16676;51.202;6.774;2023-03-01T22:49:29;6.38;;;2.97;;
29774;SDS011;16676;51.202;6.774;2023-03-01T22:53:31;7.07;;;3.30;;
29774;SDS011;16676;51.202;6.774;2023-03-01T22:57:34;9.27;;;3.40;;
29774;SDS011;16676;51.202;6.774;2023-03-01T23:01:37;7.30;;;3.00;;
29774;SDS011;16676;51.202;6.774;2023-03-01T23:05:40;4.97;;;3.17;;
29774;SDS011;16676;51.202;6.774;2023-03-01T23:09:42;6.78;;;3.35;;
29774;SDS011;16676;51.202;6.774;2023-03-01T23:13:45;6.40;;;3.05;;
29774;SDS011;16676;51.202;6.774;2023-03-01T23:17:48;7.45;;;3.30;;
29774;SDS011;16676;51.202;6.774;2023-03-01T23:21:50;9.25;;;3.15;;
29774;SDS011;16676;51.202;6.774;2023-03-01T23:25:53;5.05;;;3.03;;
29774;SDS011;16676;51.202;6.774;2023-03-01T23:29:57;6.30;;;3.35;;
29774;SDS011;16676;51.202;6.774;2023-03-01T23:33:59;4.82;;;3.00;;
29774;SDS011;16676;51.202;6.774;2023-03-01T23:38:01;6.32;;;3.05;;
29774;SDS011;16676;51.202;6.774;2023-03-01T23:42:03;6.22;;;2.80;;
29774;SDS011;16676;51.202;6.774;2023-03-01T23:46:07;6.68;;;3.53;;
29774;SDS011;16676;51.202;6.774;2023-03-01T23:50:13;6.30;;;2.80;;
29774;SDS011;16676;51.202;6.774;2023-03-01T23:54:16;4.70;;;2.97;;
29774;SDS011;16676;51.202;6.774;2023-03-01T23:58:19;4.82;;;2.75;;
